Terminal Aerodrome Forecast
Issued by NWS Tuscon, AZ

Home | Current Version | Previous Version | Text Only | Print | Product List | Glossary On
Versions: 1 2 3 4 5 6 7 8 9 10 11 12 13 14 15 16 17 18 19
000
FTUS45 KTWC 010500
TAFTUS
TAF
KTUS 010520Z 0106/0206 19007KT P6SM BKN120 BKN200
     FM010800 05006KT P6SM -RA SCT090 BKN150
      TEMPO 0108/0110 VRB15G30KT -TSRA FEW060CB
     FM011200 12004KT P6SM BKN150
     FM012000 28007KT P6SM VCSH SCT090=

USA.gov is the U.S. government's official web portal to all federal, state and local government web resources and services.